Time;durP1;ratioP1;P1;durP2;ratioP2;P2;SDS_P1;SDS_P2;PMS_P1;PMS_P2;Temp;Humidity;BMP_temperature;BMP_pressure;BME280_temperature;BME280_humidity;BME280_pressure;Samples;Min_cycle;Max_cycle;Signal;HPM_P1;HPM_P2
2022/03/05 00:31:54;;;;;;;37.93;24.13;;;;;;;1.02;80.96;99339.28;2348604;76;22396;-85
2022/03/05 00:34:55;;;;;;;41.27;25.13;;;;;;;0.88;81.06;99330.79;2317300;77;20915;-85
2022/03/05 00:37:55;;;;;;;38.00;24.80;;;;;;;0.87;81.17;99336.73;2317272;77;21330;-84
2022/03/05 00:40:55;;;;;;;42.20;25.83;;;;;;;0.81;81.21;99337.23;2317440;77;21349;-84
2022/03/05 00:43:56;;;;;;;42.63;27.17;;;;;;;0.74;81.27;99334.22;2317357;77;21303;-84
2022/03/05 00:46:56;;;;;;;53.93;30.90;;;;;;;0.70;81.44;99329.70;2317433;77;20943;-83
2022/03/05 00:49:57;;;;;;;58.57;33.13;;;;;;;0.64;81.94;99332.39;2317215;77;20923;-83
2022/03/05 00:52:57;;;;;;;51.23;28.67;;;;;;;0.59;81.76;99335.49;2317528;77;20939;-84
2022/03/05 00:55:58;;;;;;;54.90;29.47;;;;;;;0.55;81.98;99334.83;2317366;77;20908;-83
2022/03/05 00:58:58;;;;;;;47.87;28.93;;;;;;;0.50;81.96;99325.97;2317023;77;20946;-84
2022/03/05 01:01:59;;;;;;;48.73;25.83;;;;;;;0.46;81.96;99325.30;2316554;77;21038;-84
2022/03/05 01:04:59;;;;;;;45.67;26.70;;;;;;;0.42;82.16;99321.66;2317286;77;20904;-84
2022/03/05 01:08:00;;;;;;;47.03;25.17;;;;;;;0.41;82.11;99328.88;2317199;77;20939;-84
2022/03/05 01:11:00;;;;;;;39.53;23.67;;;;;;;0.41;82.20;99326.31;2317821;77;20982;-84
2022/03/05 01:14:01;;;;;;;40.00;23.60;;;;;;;0.40;82.23;99321.08;2317799;77;21318;-86
2022/03/05 01:17:01;;;;;;;43.00;26.40;;;;;;;0.39;82.20;99321.48;2317311;77;21369;-84
2022/03/05 01:20:02;;;;;;;149.17;74.83;;;;;;;0.39;82.35;99329.19;2317545;77;20959;-83
2022/03/05 01:23:03;;;;;;;69.43;35.33;;;;;;;0.37;82.43;99326.92;2317451;77;20978;-84
2022/03/05 01:26:03;;;;;;;44.43;26.13;;;;;;;0.32;82.28;99327.05;2317353;77;20935;-82
2022/03/05 01:29:04;;;;;;;42.37;24.47;;;;;;;0.32;82.61;99327.05;2317283;77;20936;-83
2022/03/05 01:32:04;;;;;;;39.53;24.67;;;;;;;0.28;82.60;99328.95;2303821;77;21370;-84
2022/03/05 01:35:05;;;;;;;38.27;25.67;;;;;;;0.26;82.68;99333.98;2303401;77;21387;-83
2022/03/05 01:38:05;;;;;;;43.47;25.60;;;;;;;0.20;82.83;99333.62;2303863;77;20929;-84
2022/03/05 01:41:06;;;;;;;36.63;21.63;;;;;;;0.15;82.71;99338.87;2303614;77;20941;-83
2022/03/05 01:44:06;;;;;;;39.27;23.60;;;;;;;0.11;82.74;99337.32;2303104;77;20957;-82
2022/03/05 01:47:07;;;;;;;33.83;21.50;;;;;;;0.08;82.81;99332.89;2303107;77;20961;-84
2022/03/05 01:50:07;;;;;;;39.60;23.90;;;;;;;0.06;82.81;99338.72;2303721;77;20953;-84
2022/03/05 01:53:08;;;;;;;42.33;27.00;;;;;;;0.07;82.92;99332.80;2303107;77;20945;-82
2022/03/05 01:56:09;;;;;;;44.47;26.53;;;;;;;0.09;82.81;99340.19;2302901;77;20948;-83
2022/03/05 01:59:10;;;;;;;39.67;24.83;;;;;;;0.09;82.82;99334.66;2303082;77;21049;-83
2022/03/05 02:02:10;;;;;;;38.67;23.10;;;;;;;0.11;82.83;99336.92;2303008;77;20925;-84
2022/03/05 02:05:11;;;;;;;37.77;21.93;;;;;;;0.12;82.71;99335.24;2302629;77;20944;-85
2022/03/05 02:08:11;;;;;;;39.80;22.07;;;;;;;0.14;82.78;99333.25;2303430;77;20972;-85
2022/03/05 02:11:12;;;;;;;35.93;21.97;;;;;;;0.13;82.60;99334.05;2302957;77;20996;-84
2022/03/05 02:14:13;;;;;;;35.53;20.90;;;;;;;0.15;82.63;99329.01;2302817;77;20933;-83
2022/03/05 02:17:13;;;;;;;32.43;19.47;;;;;;;0.17;82.65;99334.72;2302926;77;21433;-85
2022/03/05 02:20:14;;;;;;;33.30;20.73;;;;;;;0.17;82.48;99329.59;2302928;77;20961;-83
2022/03/05 02:23:14;;;;;;;29.10;20.27;;;;;;;0.17;82.42;99333.84;2302816;77;20937;-83
2022/03/05 02:26:15;;;;;;;32.27;20.77;;;;;;;0.18;82.41;99327.52;2302663;77;20960;-84
2022/03/05 02:29:15;;;;;;;40.30;25.13;;;;;;;0.18;82.32;99331.36;2302808;77;20950;-84
2022/03/05 02:32:16;;;;;;;40.67;24.40;;;;;;;0.18;82.27;99324.94;2285122;77;21417;-84
2022/03/05 02:35:16;;;;;;;39.73;24.07;;;;;;;0.17;82.16;99329.59;2284598;78;21350;-83
2022/03/05 02:38:17;;;;;;;32.90;21.43;;;;;;;0.18;82.19;99330.48;2284797;78;20986;-83
2022/03/05 02:41:20;;;;;;;40.60;22.60;;;;;;;0.15;82.05;99338.87;2284995;78;20942;-84
2022/03/05 02:44:21;;;;;;;41.10;23.13;;;;;;;0.16;82.01;99335.91;2284950;78;20927;-83
2022/03/05 02:47:21;;;;;;;34.40;21.17;;;;;;;0.20;82.02;99335.30;2284708;78;21346;-84
2022/03/05 02:50:22;;;;;;;32.00;19.47;;;;;;;0.23;81.93;99336.77;2284923;78;20974;-83
2022/03/05 02:53:22;;;;;;;31.80;19.47;;;;;;;0.21;81.78;99336.69;2284768;78;20950;-85
2022/03/05 02:56:23;;;;;;;31.43;20.73;;;;;;;0.17;81.81;99336.41;2285014;78;20943;-83
2022/03/05 02:59:25;;;;;;;37.13;24.07;;;;;;;0.12;81.82;99333.56;2284994;78;20969;-85
2022/03/05 03:02:26;;;;;;;41.10;25.37;;;;;;;0.08;81.75;99334.56;2285243;78;21007;-85
2022/03/05 03:05:27;;;;;;;38.13;21.57;;;;;;;0.06;81.75;99339.61;2285366;78;20899;-83
2022/03/05 03:08:27;;;;;;;41.50;23.80;;;;;;;0.05;81.74;99343.37;2285827;78;20974;-84
2022/03/05 03:11:28;;;;;;;32.00;19.97;;;;;;;0.02;81.75;99336.77;2285699;78;21006;-83
2022/03/05 03:14:28;;;;;;;36.57;20.30;;;;;;;0.01;81.65;99342.69;2285422;78;20931;-83
2022/03/05 03:17:29;;;;;;;33.17;20.07;;;;;;;-0.02;81.39;99335.66;2286547;78;20985;-84
2022/03/05 03:20:29;;;;;;;37.30;19.83;;;;;;;-0.04;81.44;99334.28;2286906;78;20971;-83
2022/03/05 03:23:30;;;;;;;30.97;19.73;;;;;;;-0.02;81.58;99337.83;2286902;78;21385;-84
2022/03/05 03:26:30;;;;;;;36.87;20.43;;;;;;;0.02;81.54;99332.91;2286258;78;21357;-82
2022/03/05 03:29:31;;;;;;;30.70;18.63;;;;;;;0.06;81.47;99337.04;2286032;78;20899;-83
2022/03/05 03:32:32;;;;;;;27.07;17.43;;;;;;;0.11;81.31;99331.79;2303726;77;21045;-82
2022/03/05 03:35:32;;;;;;;29.70;17.77;;;;;;;0.16;81.12;99334.63;2305374;77;21044;-84
2022/03/05 03:38:32;;;;;;;28.53;18.33;;;;;;;0.18;81.08;99332.64;2305015;77;20940;-83
2022/03/05 03:41:33;;;;;;;26.20;17.53;;;;;;;0.18;80.91;99332.64;2305852;77;20965;-83
2022/03/05 03:44:33;;;;;;;29.77;19.07;;;;;;;0.21;80.96;99334.11;2305343;77;20968;-83
2022/03/05 03:47:34;;;;;;;34.07;20.53;;;;;;;0.26;80.80;99341.69;2305229;77;20960;-83
2022/03/05 03:50:34;;;;;;;45.13;25.13;;;;;;;0.29;80.65;99339.31;2305115;77;21000;-84
2022/03/05 03:53:35;;;;;;;34.90;20.63;;;;;;;0.23;80.61;99348.33;2305070;77;20980;-84
2022/03/05 03:56:35;;;;;;;33.27;20.07;;;;;;;0.21;80.65;99352.09;2305319;77;21012;-84
2022/03/05 03:59:36;;;;;;;32.53;20.10;;;;;;;0.17;80.65;99351.41;2305758;77;20961;-85
2022/03/05 04:02:36;;;;;;;27.93;18.67;;;;;;;0.12;80.66;99357.06;2304534;77;21000;-84
2022/03/05 04:05:37;;;;;;;33.03;19.30;;;;;;;0.02;80.69;99350.48;2305092;77;21008;-84
2022/03/05 04:08:43;;;;;;;34.40;18.87;;;;;;;-0.03;80.70;99350.17;2304671;77;20945;-81
2022/03/05 04:11:44;;;;;;;33.37;19.63;;;;;;;-0.03;80.93;99350.17;2305243;77;21004;-84
2022/03/05 04:14:44;;;;;;;59.10;32.07;;;;;;;-0.01;80.88;99360.13;2305421;77;20961;-83
2022/03/05 04:17:45;;;;;;;40.73;23.30;;;;;;;0.01;80.91;99355.52;2304193;77;21317;-83
2022/03/05 04:20:45;;;;;;;26.53;18.17;;;;;;;-0.03;80.81;99358.27;2304948;77;20937;-83
2022/03/05 04:23:48;;;;;;;30.17;18.60;;;;;;;-0.06;80.81;99354.23;2305014;77;20950;-84
2022/03/05 04:26:49;;;;;;;30.20;19.07;;;;;;;-0.10;80.82;99353.16;2304946;77;21052;-84
2022/03/05 04:29:49;;;;;;;30.27;19.30;;;;;;;-0.12;80.97;99362.44;2303879;77;21027;-85
2022/03/05 04:32:50;;;;;;;29.47;18.53;;;;;;;-0.15;80.94;99366.09;2322836;77;20970;-85
2022/03/05 04:35:50;;;;;;;31.63;19.83;;;;;;;-0.18;81.14;99373.60;2321377;77;20979;-84
2022/03/05 04:38:51;;;;;;;28.90;18.73;;;;;;;-0.22;81.30;99378.05;2323309;77;21166;-83
2022/03/05 04:41:54;;;;;;;30.13;18.93;;;;;;;-0.27;81.15;99383.69;2323678;77;21021;-86
2022/03/05 04:44:54;;;;;;;34.53;20.20;;;;;;;-0.27;81.34;99378.16;2322976;77;21007;-85
2022/03/05 04:47:55;;;;;;;38.03;20.57;;;;;;;-0.25;81.15;99382.99;2323661;77;20970;-86
2022/03/05 04:50:55;;;;;;;38.73;21.07;;;;;;;-0.23;81.40;99386.55;2321603;77;21001;-84
2022/03/05 04:53:56;;;;;;;41.33;21.80;;;;;;;-0.27;81.11;99387.14;2322810;77;20947;-84
2022/03/05 04:57:00;;;;;;;33.17;19.90;;;;;;;-0.30;81.17;99389.52;2322980;77;20955;-84
2022/03/05 05:00:00;;;;;;;34.27;18.73;;;;;;;-0.32;81.19;99393.66;2322358;77;21034;-84
2022/03/05 05:03:01;;;;;;;30.70;17.60;;;;;;;-0.31;81.25;99386.46;2323543;77;20958;-85
2022/03/05 05:06:01;;;;;;;31.53;18.17;;;;;;;-0.30;81.22;99386.06;2323297;77;20935;-86
2022/03/05 05:09:02;;;;;;;50.57;28.17;;;;;;;-0.27;81.14;99393.55;2323141;77;20978;-89
2022/03/05 05:12:02;;;;;;;31.73;19.97;;;;;;;-0.26;81.14;99398.30;2323138;77;21307;-87
2022/03/05 05:15:03;;;;;;;36.10;21.37;;;;;;;-0.34;80.91;99399.98;2323429;77;20970;-86
2022/03/05 05:18:03;;;;;;;33.03;20.63;;;;;;;-0.35;81.12;99396.03;2324052;77;20992;-86
2022/03/05 05:21:04;;;;;;;33.80;18.97;;;;;;;-0.32;81.23;99394.95;2323510;77;21035;-86
2022/03/05 05:24:04;;;;;;;25.90;17.90;;;;;;;-0.30;81.05;99392.08;2324064;77;20951;-87
2022/03/05 05:27:05;;;;;;;35.90;19.50;;;;;;;-0.26;80.93;99394.05;2324110;77;20985;-87
2022/03/05 05:30:05;;;;;;;39.70;19.93;;;;;;;-0.24;80.86;99398.87;2323424;77;20966;-87
2022/03/05 05:33:06;;;;;;;33.17;19.30;;;;;;;-0.18;80.96;99409.52;2319940;77;20999;-87
2022/03/05 05:36:06;;;;;;;38.97;19.90;;;;;;;-0.19;80.62;99402.62;2319462;77;21025;-86
2022/03/05 05:39:07;;;;;;;38.27;20.17;;;;;;;-0.16;80.72;99401.53;2318804;77;21023;-87
2022/03/05 05:42:07;;;;;;;33.67;18.60;;;;;;;-0.13;80.54;99404.28;2318123;77;21031;-84
2022/03/05 05:45:09;;;;;;;35.67;19.67;;;;;;;-0.11;80.42;99408.23;2318077;77;20927;-83
2022/03/05 05:48:10;;;;;;;30.10;17.50;;;;;;;-0.11;80.32;99406.55;2317545;77;20962;-83
2022/03/05 05:51:10;;;;;;;28.30;16.97;;;;;;;-0.08;80.22;99403.29;2317633;77;20982;-83
2022/03/05 05:54:11;;;;;;;30.40;17.00;;;;;;;-0.03;80.09;99413.44;2318787;77;20975;-85
2022/03/05 05:57:11;;;;;;;30.03;17.17;;;;;;;-0.03;80.00;99411.77;2316111;77;20939;-82
2022/03/05 06:00:12;;;;;;;28.50;16.77;;;;;;;0.03;80.07;99411.69;2315656;77;20978;-82
2022/03/05 06:03:12;;;;;;;33.97;17.60;;;;;;;0.09;79.80;99412.06;2315831;77;20927;-82
2022/03/05 06:06:13;;;;;;;34.43;19.63;;;;;;;0.11;79.53;99417.78;2315513;77;21702;-80
2022/03/05 06:09:13;;;;;;;24.87;16.43;;;;;;;0.16;79.56;99412.93;2315809;77;20903;-81
2022/03/05 06:12:14;;;;;;;39.07;22.03;;;;;;;0.20;79.29;99421.31;2316862;77;20967;-80
2022/03/05 06:15:14;;;;;;;26.13;17.20;;;;;;;0.19;79.19;99419.14;2314623;77;20990;-80
2022/03/05 06:18:15;;;;;;;30.27;18.17;;;;;;;0.23;78.98;99421.10;2315062;77;20900;-80
2022/03/05 06:21:15;;;;;;;27.40;18.57;;;;;;;0.25;78.99;99419.52;2314668;77;20935;-80
2022/03/05 06:24:16;;;;;;;39.23;21.77;;;;;;;0.31;78.76;99425.03;2314300;77;21330;-81
2022/03/05 06:27:16;;;;;;;34.40;21.43;;;;;;;0.37;78.50;99428.77;2314762;77;21325;-80
2022/03/05 06:30:17;;;;;;;37.23;21.77;;;;;;;0.40;78.32;99428.95;2314867;77;21346;-80
2022/03/05 06:33:17;;;;;;;35.83;21.10;;;;;;;0.48;78.48;99427.33;2302497;77;20921;-81
2022/03/05 06:36:18;;;;;;;30.07;19.87;;;;;;;0.59;78.27;99425.41;2302730;77;20918;-80
2022/03/05 06:39:18;;;;;;;30.30;18.60;;;;;;;0.70;78.04;99428.62;2302889;77;20921;-80
2022/03/05 06:42:19;;;;;;;30.53;18.90;;;;;;;0.77;77.54;99430.75;2303084;77;20989;-80
2022/03/05 06:45:19;;;;;;;36.73;19.87;;;;;;;0.80;77.11;99438.65;2302274;77;21369;-80
2022/03/05 06:48:20;;;;;;;31.53;17.37;;;;;;;0.79;77.14;99440.73;2301755;77;21382;-79
2022/03/05 06:51:20;;;;;;;25.00;17.63;;;;;;;0.78;76.92;99437.67;2301315;77;20992;-80
2022/03/05 06:54:21;;;;;;;30.57;18.67;;;;;;;0.73;76.72;99437.39;2302171;77;20905;-80
2022/03/05 06:57:21;;;;;;;29.50;18.07;;;;;;;0.78;77.17;99441.52;2302060;77;20929;-80
2022/03/05 07:00:22;;;;;;;26.03;17.57;;;;;;;0.85;77.03;99439.80;2301502;77;20949;-80
2022/03/05 07:03:22;;;;;;;26.10;17.77;;;;;;;0.93;76.61;99445.92;2301438;77;21004;-80
2022/03/05 07:06:23;;;;;;;31.30;18.37;;;;;;;0.97;76.40;99444.81;2302054;77;20925;-80
2022/03/05 07:09:23;;;;;;;27.23;17.50;;;;;;;1.08;76.38;99436.94;2301375;77;20964;-80
2022/03/05 07:12:25;;;;;;;33.83;20.13;;;;;;;1.17;75.86;99436.58;2301381;77;20980;-80
2022/03/05 07:15:26;;;;;;;30.50;18.07;;;;;;;1.23;75.50;99439.11;2301127;77;21008;-79
2022/03/05 07:18:26;;;;;;;29.03;18.57;;;;;;;1.27;75.55;99442.34;2301700;77;21399;-80
2022/03/05 07:21:27;;;;;;;26.33;17.47;;;;;;;1.42;75.28;99450.45;2301865;77;21020;-81
2022/03/05 07:24:27;;;;;;;31.90;16.97;;;;;;;1.60;75.39;99454.07;2301911;77;20932;-81
2022/03/05 07:27:28;;;;;;;29.13;16.47;;;;;;;1.77;74.32;99447.33;2302104;77;20936;-80
2022/03/05 07:30:28;;;;;;;23.20;15.73;;;;;;;1.88;74.19;99459.11;2302347;77;21041;-79
2022/03/05 07:33:29;;;;;;;28.03;15.90;;;;;;;1.95;72.75;99462.50;2284664;76;21038;-79
2022/03/05 07:36:30;;;;;;;18.97;13.03;;;;;;;1.89;72.56;99461.77;2284037;78;21307;-79
2022/03/05 07:39:30;;;;;;;21.00;13.03;;;;;;;1.90;71.61;99458.39;2285055;78;21285;-79
2022/03/05 07:42:31;;;;;;;20.27;13.80;;;;;;;2.00;71.67;99458.89;2284593;78;21313;-79
2022/03/05 07:45:31;;;;;;;20.63;13.90;;;;;;;2.06;71.19;99456.66;2283221;78;20938;-81
2022/03/05 07:48:31;;;;;;;20.90;13.30;;;;;;;2.16;71.38;99453.38;2283250;78;20955;-80
2022/03/05 07:51:32;;;;;;;21.80;13.73;;;;;;;2.33;71.33;99454.69;2283816;78;21352;-79
2022/03/05 07:54:33;;;;;;;22.83;14.17;;;;;;;2.52;70.81;99458.73;2283720;78;20923;-80
2022/03/05 07:57:33;;;;;;;17.73;11.97;;;;;;;2.64;69.60;99459.81;2284427;78;20923;-79
2022/03/05 08:00:34;;;;;;;22.70;13.60;;;;;;;2.70;68.32;99462.72;2285036;78;20978;-80
2022/03/05 08:03:34;;;;;;;25.60;14.93;;;;;;;2.76;68.81;99460.05;2284684;78;21062;-79
2022/03/05 08:06:35;;;;;;;16.30;11.70;;;;;;;2.82;68.19;99473.67;2284743;78;20962;-79
2022/03/05 08:09:36;;;;;;;16.10;11.07;;;;;;;2.84;66.38;99471.66;2284268;78;20951;-79
2022/03/05 08:12:36;;;;;;;25.37;14.37;;;;;;;2.84;66.85;99469.08;2284165;78;20923;-79
2022/03/05 08:15:37;;;;;;;28.10;15.23;;;;;;;2.95;66.66;99460.60;2283891;78;20922;-79
2022/03/05 08:18:37;;;;;;;17.80;11.97;;;;;;;3.06;65.48;99467.59;2283873;78;20931;-78
2022/03/05 08:21:38;;;;;;;29.60;17.07;;;;;;;3.14;65.78;99462.02;2284337;78;20962;-79
2022/03/05 08:24:39;;;;;;;17.10;11.83;;;;;;;3.29;64.53;99460.62;2284005;78;20965;-78
2022/03/05 08:27:39;;;;;;;15.07;7.87;;;;;;;3.39;65.22;99460.67;2284145;78;20933;-79
2022/03/05 08:30:40;;;;;;;16.80;10.50;;;;;;;3.40;62.98;99457.28;2285064;78;21077;-79
2022/03/05 08:33:40;;;;;;;15.27;9.50;;;;;;;3.36;62.35;99462.69;2316763;77;21644;-82
2022/03/05 08:36:41;;;;;;;15.03;9.70;;;;;;;3.37;61.81;99467.05;2318397;77;20951;-81
2022/03/05 08:39:41;;;;;;;15.57;9.10;;;;;;;3.51;62.27;99466.47;2318000;77;20989;-83
2022/03/05 08:42:42;;;;;;;11.87;7.47;;;;;;;3.64;59.36;99475.30;2317755;77;20990;-84
2022/03/05 08:45:42;;;;;;;13.23;8.20;;;;;;;3.60;58.92;99476.36;2316587;77;20967;-81
2022/03/05 08:48:43;;;;;;;11.33;7.40;;;;;;;3.59;57.65;99468.14;2317800;77;20974;-82
2022/03/05 08:51:44;;;;;;;10.83;6.93;;;;;;;3.69;58.24;99473.83;2317465;77;21025;-83
2022/03/05 08:54:44;;;;;;;10.60;6.97;;;;;;;3.77;57.73;99469.92;2318120;77;20987;-81
2022/03/05 08:57:45;;;;;;;13.43;7.10;;;;;;;3.78;57.30;99479.44;2317933;77;20951;-82
2022/03/05 09:00:45;;;;;;;10.27;6.57;;;;;;;3.93;57.14;99479.70;2317852;77;20942;-83
2022/03/05 09:03:46;;;;;;;9.83;6.10;;;;;;;4.00;55.06;99474.01;2317354;77;21389;-83
2022/03/05 09:06:47;;;;;;;16.40;9.33;;;;;;;3.92;54.32;99474.94;2317595;77;21004;-82
2022/03/05 09:09:47;;;;;;;5.57;4.40;;;;;;;3.90;54.48;99480.84;2317204;77;20947;-81
2022/03/05 09:12:48;;;;;;;7.57;6.17;;;;;;;3.95;52.19;99476.38;2317556;77;20931;-81
2022/03/05 09:15:48;;;;;;;7.03;4.67;;;;;;;4.02;52.58;99476.26;2316275;77;20943;-82
2022/03/05 09:18:51;;;;;;;5.30;4.10;;;;;;;4.04;50.20;99483.27;2285967;77;20943;-83
2022/03/05 09:21:51;;;;;;;8.83;7.03;;;;;;;3.99;50.81;99486.45;2315966;77;20986;-83
2022/03/05 09:24:52;;;;;;;7.90;6.50;;;;;;;4.00;48.39;99489.51;2317571;77;20931;-82
2022/03/05 09:27:52;;;;;;;5.00;3.90;;;;;;;4.06;49.62;99484.63;2316307;77;20931;-80
2022/03/05 09:30:53;;;;;;;5.27;3.80;;;;;;;3.98;45.33;99486.85;2315789;77;21401;-80
2022/03/05 09:33:53;;;;;;;4.07;3.00;;;;;;;3.79;46.24;99491.94;2302456;77;21365;-79
2022/03/05 09:36:54;;;;;;;5.53;3.87;;;;;;;3.90;47.26;99486.00;2303010;77;20945;-79
2022/03/05 09:39:54;;;;;;;2.87;2.63;;;;;;;4.07;47.14;99500.20;2302618;77;20934;-80
2022/03/05 09:42:55;;;;;;;3.43;3.03;;;;;;;4.22;45.06;99500.45;2301959;77;20941;-80
2022/03/05 09:45:56;;;;;;;3.93;2.17;;;;;;;4.25;42.94;99498.90;2304157;77;20969;-83
2022/03/05 09:48:56;;;;;;;6.73;4.80;;;;;;;4.38;45.38;99505.16;2304041;77;20953;-82
2022/03/05 09:51:57;;;;;;;5.77;2.97;;;;;;;4.55;45.53;99494.70;2303597;77;20997;-83
2022/03/05 09:54:57;;;;;;;7.10;4.63;;;;;;;4.76;44.63;99495.27;2303007;77;21011;-83
2022/03/05 09:57:59;;;;;;;4.60;3.10;;;;;;;4.88;42.65;99505.28;2303093;77;20910;-82
2022/03/05 10:00:59;;;;;;;2.50;2.30;;;;;;;4.90;42.74;99502.35;2302901;77;21384;-83
2022/03/05 10:04:02;;;;;;;3.50;3.00;;;;;;;4.92;41.13;99491.66;2303055;77;20957;-83
2022/03/05 10:07:02;;;;;;;5.47;3.20;;;;;;;4.91;41.23;99513.58;2303793;77;21394;-84
2022/03/05 10:10:03;;;;;;;4.53;3.40;;;;;;;4.41;41.14;99516.05;2303470;77;20992;-84
2022/03/05 10:13:03;;;;;;;2.80;2.50;;;;;;;4.33;39.89;99518.23;2303826;77;20913;-84
2022/03/05 10:16:04;;;;;;;2.83;1.97;;;;;;;4.26;41.16;99519.17;2303354;77;20952;-83
2022/03/05 10:19:04;;;;;;;2.23;2.03;;;;;;;4.28;40.22;99508.09;2303323;77;21388;-84
2022/03/05 10:22:05;;;;;;;3.80;2.20;;;;;;;4.11;39.74;99509.88;2304813;77;21431;-83
2022/03/05 10:25:05;;;;;;;2.13;1.93;;;;;;;3.97;40.32;99500.58;2304987;77;20969;-83
2022/03/05 10:28:06;;;;;;;2.37;2.17;;;;;;;4.11;39.90;99494.78;2303344;77;20987;-80
2022/03/05 10:31:08;;;;;;;7.10;3.40;;;;;;;4.33;41.88;99497.56;2304759;77;20929;-81
2022/03/05 10:34:09;;;;;;;3.73;3.20;;;;;;;4.72;41.91;99492.06;2314570;76;20994;-83
2022/03/05 10:37:09;;;;;;;6.50;4.40;;;;;;;5.00;40.26;99495.47;2315902;77;21336;-82
2022/03/05 10:40:10;;;;;;;4.27;3.37;;;;;;;4.91;40.42;99504.13;2316074;77;20944;-82
2022/03/05 10:43:10;;;;;;;5.80;3.07;;;;;;;4.57;41.56;99500.42;2315054;77;20978;-83
2022/03/05 10:46:10;;;;;;;4.13;2.63;;;;;;;4.24;39.00;99511.34;2315429;77;20911;-81
2022/03/05 10:49:14;;;;;;;3.57;2.90;;;;;;;3.94;39.04;99506.00;2315279;77;21315;-83
2022/03/05 10:52:14;;;;;;;7.00;4.37;;;;;;;3.71;38.34;99510.05;2314875;77;20954;-82
2022/03/05 10:55:15;;;;;;;3.10;2.50;;;;;;;3.57;40.19;99511.95;2315573;77;21377;-82
2022/03/05 10:58:17;;;;;;;4.30;2.60;;;;;;;3.72;40.26;99504.08;2316729;77;20958;-81
2022/03/05 11:04:24;;;;;;;7.47;2.37;;;;;;;4.29;41.46;99498.63;2285587;77;20994;-81
2022/03/05 11:07:25;;;;;;;2.90;2.60;;;;;;;4.69;41.28;99502.27;2316322;77;20989;-83
2022/03/05 11:10:26;;;;;;;2.57;2.37;;;;;;;4.90;39.97;99504.05;2316644;77;20954;-81
2022/03/05 11:13:28;;;;;;;4.07;3.30;;;;;;;5.07;38.63;99493.62;2316241;77;21006;-80
2022/03/05 11:16:28;;;;;;;4.00;3.37;;;;;;;5.30;40.17;99495.06;2315627;77;21003;-81
2022/03/05 11:19:30;;;;;;;4.67;3.50;;;;;;;5.68;38.94;99484.61;2316250;77;20883;-81
2022/03/05 11:22:31;;;;;;;21.03;4.37;;;;;;;6.03;39.76;99482.59;2315718;77;20975;-81
2022/03/05 11:25:33;;;;;;;10.30;5.90;;;;;;;6.39;40.33;99474.98;2316280;77;21015;-80
2022/03/05 11:28:34;;;;;;;6.93;4.10;;;;;;;6.43;38.54;99480.28;2316843;77;21533;-80
2022/03/05 11:31:34;;;;;;;3.60;3.30;;;;;;;6.27;39.92;99484.88;2315885;77;21029;-80
2022/03/05 11:34:35;;;;;;;4.90;3.50;;;;;;;6.28;40.23;99481.88;2316498;77;20966;-79
2022/03/05 11:37:35;;;;;;;5.03;2.90;;;;;;;6.34;39.79;99481.70;2316208;77;20912;-80
2022/03/05 11:40:36;;;;;;;4.27;3.57;;;;;;;6.35;39.86;99482.17;2315837;77;20908;-79
2022/03/05 11:43:36;;;;;;;5.77;4.43;;;;;;;6.27;38.80;99480.11;2315923;77;21002;-79
2022/03/05 11:46:37;;;;;;;5.47;3.63;;;;;;;6.04;38.77;99483.95;2316526;77;21311;-80
2022/03/05 11:49:37;;;;;;;3.60;3.30;;;;;;;5.78;40.48;99478.09;2316693;77;21382;-80
2022/03/05 11:52:38;;;;;;;3.97;3.27;;;;;;;5.71;40.83;99471.78;2316173;77;20939;-81
2022/03/05 11:55:41;;;;;;;5.53;4.17;;;;;;;5.56;40.21;99475.45;2314992;77;20967;-79
2022/03/05 11:58:40;;;;;;;4.27;3.33;;;;;;;5.41;39.63;99468.81;2315676;77;21345;-79
2022/03/05 12:01:42;;;;;;;4.80;3.47;;;;;;;5.37;39.45;99476.38;2316603;77;21358;-80
2022/03/05 12:04:42;;;;;;;5.33;3.80;;;;;;;5.31;40.30;99470.95;2315129;77;21002;-80
2022/03/05 12:07:43;;;;;;;4.87;4.00;;;;;;;5.31;40.64;99467.06;2315181;77;20907;-80
2022/03/05 12:10:43;;;;;;;7.83;4.07;;;;;;;5.37;42.05;99461.73;2315337;77;21362;-79
2022/03/05 12:13:44;;;;;;;6.00;4.70;;;;;;;5.44;41.91;99454.70;2314920;77;21288;-80
2022/03/05 12:16:44;;;;;;;3.93;3.53;;;;;;;5.47;39.47;99458.23;2315046;77;20915;-80
2022/03/05 12:19:45;;;;;;;3.90;3.07;;;;;;;5.37;40.54;99460.44;2315773;77;20978;-81
2022/03/05 12:22:45;;;;;;;4.50;3.40;;;;;;;5.36;39.97;99459.08;2315719;77;20981;-80
2022/03/05 12:25:46;;;;;;;3.80;3.40;;;;;;;5.47;40.56;99457.83;2315533;77;20998;-80
2022/03/05 12:28:46;;;;;;;5.27;4.43;;;;;;;5.52;40.53;99456.31;2315447;77;21018;-80
2022/03/05 12:31:47;;;;;;;5.60;4.77;;;;;;;5.48;40.65;99461.30;2314993;77;21025;-79
2022/03/05 12:34:49;;;;;;;6.17;4.67;;;;;;;5.45;40.93;99460.77;2274718;77;20980;-79
2022/03/05 12:37:50;;;;;;;13.90;10.10;;;;;;;5.36;41.18;99462.55;2302882;77;20983;-79
2022/03/05 12:40:50;;;;;;;7.80;5.87;;;;;;;5.18;41.16;99467.33;2302884;77;21325;-79
2022/03/05 12:43:51;;;;;;;8.60;6.00;;;;;;;5.11;42.01;99460.59;2302880;77;21357;-78
2022/03/05 12:46:51;;;;;;;7.33;4.60;;;;;;;5.15;41.79;99462.91;2302572;77;20999;-79
2022/03/05 12:49:52;;;;;;;6.53;4.70;;;;;;;5.04;41.88;99461.15;2302704;77;21016;-79
2022/03/05 12:52:52;;;;;;;8.80;6.30;;;;;;;4.85;42.23;99469.34;2302855;77;20973;-79
2022/03/05 12:55:55;;;;;;;10.03;6.87;;;;;;;4.65;42.15;99468.04;2301852;77;20985;-79
2022/03/05 12:58:56;;;;;;;8.53;6.60;;;;;;;4.54;43.50;99461.50;2301420;77;20996;-81
2022/03/05 13:01:56;;;;;;;7.97;5.80;;;;;;;4.52;43.91;99468.30;2302381;77;21402;-81
2022/03/05 13:04:57;;;;;;;7.47;5.40;;;;;;;4.42;44.48;99462.23;2303010;77;20955;-80
2022/03/05 13:07:57;;;;;;;20.27;5.80;;;;;;;4.25;44.82;99457.96;2302654;77;20972;-80
2022/03/05 13:10:58;;;;;;;7.23;5.60;;;;;;;4.18;44.12;99452.91;2302771;77;21360;-81
2022/03/05 13:13:58;;;;;;;12.20;7.80;;;;;;;5.17;44.72;99447.44;2302045;77;21273;-80
2022/03/05 13:16:59;;;;;;;8.47;5.30;;;;;;;4.91;44.55;99447.61;2302402;77;21352;-81
2022/03/05 13:19:59;;;;;;;9.23;6.00;;;;;;;4.63;43.80;99445.11;2302601;77;20953;-80
2022/03/05 13:23:00;;;;;;;6.93;5.27;;;;;;;4.43;44.58;99451.97;2300666;77;20948;-80
2022/03/05 13:26:01;;;;;;;6.80;5.20;;;;;;;4.37;44.88;99452.98;2300717;77;20980;-80
2022/03/05 13:29:01;;;;;;;6.23;5.10;;;;;;;4.29;44.50;99456.88;2301309;77;20951;-77
2022/03/05 13:32:02;;;;;;;6.00;5.03;;;;;;;4.24;44.81;99448.44;2300879;77;21007;-78
2022/03/05 13:35:02;;;;;;;9.07;5.40;;;;;;;4.24;44.83;99448.03;2301443;77;20956;-77
2022/03/05 13:38:03;;;;;;;7.03;5.10;;;;;;;4.33;45.33;99444.98;2302351;77;20925;-84
2022/03/05 13:41:03;;;;;;;7.13;5.13;;;;;;;4.29;44.56;99450.42;2302485;77;20902;-79
2022/03/05 13:44:05;;;;;;;22.47;6.67;;;;;;;4.14;44.90;99453.18;2303047;77;21049;-79
2022/03/05 13:47:06;;;;;;;10.93;6.53;;;;;;;4.11;45.79;99458.20;2303188;77;21328;-79
2022/03/05 13:50:06;;;;;;;9.60;5.83;;;;;;;4.12;45.81;99458.68;2302940;77;20937;-80
2022/03/05 13:53:07;;;;;;;9.10;6.13;;;;;;;3.93;46.69;99459.92;2302952;77;20959;-79
2022/03/05 13:56:07;;;;;;;9.90;6.73;;;;;;;3.81;46.71;99466.67;2303278;77;20990;-83
2022/03/05 13:59:08;;;;;;;7.73;6.17;;;;;;;3.76;47.36;99469.44;2303468;77;21308;-80
2022/03/05 14:02:08;;;;;;;10.77;7.10;;;;;;;3.65;48.10;99478.77;2303568;77;21300;-79
2022/03/05 14:05:09;;;;;;;12.10;8.60;;;;;;;3.60;48.53;99473.38;2302681;77;21392;-79
2022/03/05 14:08:09;;;;;;;9.83;6.80;;;;;;;3.67;48.04;99475.85;2303194;77;21323;-80
2022/03/05 14:11:10;;;;;;;9.97;6.90;;;;;;;3.68;47.93;99482.79;2302803;77;21027;-79
2022/03/05 14:14:10;;;;;;;11.10;7.87;;;;;;;3.61;48.54;99480.72;2303060;77;20905;-81
2022/03/05 14:17:11;;;;;;;11.37;7.77;;;;;;;3.55;48.24;99493.32;2302938;77;20968;-79
2022/03/05 14:20:12;;;;;;;9.97;6.07;;;;;;;3.50;48.68;99491.80;2302995;77;20945;-80
2022/03/05 14:23:12;;;;;;;10.77;7.03;;;;;;;3.47;48.64;99498.10;2302827;77;20878;-80
2022/03/05 14:26:13;;;;;;;11.10;7.50;;;;;;;3.40;49.12;99498.57;2303068;77;20937;-80
2022/03/05 14:29:14;;;;;;;13.80;8.80;;;;;;;3.44;49.12;99496.63;2303015;77;21040;-80
2022/03/05 14:32:15;;;;;;;13.27;8.80;;;;;;;3.34;49.47;99499.15;2302918;77;21033;-79
2022/03/05 14:35:15;;;;;;;13.00;8.17;;;;;;;3.29;49.77;99507.47;2315907;77;20935;-78
2022/03/05 14:38:16;;;;;;;38.23;13.57;;;;;;;3.31;50.08;99512.30;2316315;77;20895;-79